Illinois — WYQ3689 — position and weather

sailwx.info

Track history (hours):
 
Tides and Currents Weather Stations Pressure Air Temp Water Temp Dewpoint Dewpoint Depression Visibility Wind Speed Wind Dir Waves Ship Positions

Illinois

Owner: Great Lakes Dredge & Dock Company, OAK BROOK, IL. More information available from US FCC via Universal Licensing System and Coast Guard Vessel Documentation Center.

Last reported at 2017-May-26 10:16 UTC. Time now 2017-May-26 16:53 UTC.
Position N 39°07' W 074°42'.

Length 69 m; draft 3 m.

Type: Dredging. MMSI: 366796250.

Date/timePositionNaut miles runAvg speedWind from/ knotsBaromVisibWave heightAir tempDewpointWater temp
2017-May-26 10:16N 39°07' W 074°42'0 0.0
2017-May-26 09:47N 39°07' W 074°42'0 0.0
2017-May-26 09:28N 39°07' W 074°42'0 0.0
2017-May-26 08:56N 39°07' W 074°42'0 0.0
2017-May-26 08:30N 39°07' W 074°42'0 0.0
2017-May-26 08:00N 39°07' W 074°42'0 0.0
2017-May-26 07:25N 39°07' W 074°42'0 0.0
2017-May-26 06:53N 39°07' W 074°42'0 0.0
2017-May-26 05:31N 39°07' W 074°42'0 0.0
2017-May-26 00:17N 39°07' W 074°42'0 0.0
2017-May-25 23:55N 39°07' W 074°42'0 0.0
2017-May-25 23:30N 39°07' W 074°42'0 0.0
2017-May-25 22:56N 39°07' W 074°42'0 0.0
2017-May-25 22:17N 39°07' W 074°42'0 0.0
2017-May-25 21:44N 39°07' W 074°42'0 0.0
2017-May-25 21:19N 39°07' W 074°42'0 0.0
2017-May-25 18:28N 39°07' W 074°42'0 0.0
2017-May-25 07:41N 39°07' W 074°42'0 0.0
2017-May-25 07:23N 39°07' W 074°42'0 0.0
2017-May-25 06:40N 39°07' W 074°42'0 0.0
2017-May-24 11:46N 39°07' W 074°42'0 0.0
2017-May-24 11:27N 39°07' W 074°42'0 0.0
2017-May-24 10:13N 39°07' W 074°42'0 0.0
2017-May-24 09:59N 39°07' W 074°42'0 0.0
2017-May-24 09:21N 39°07' W 074°42'0 0.1
2017-May-24 08:57N 39°07' W 074°42'0 0.1
2017-May-24 08:30N 39°07' W 074°42'0 0.0
2017-May-24 07:57N 39°07' W 074°42'0 0.0
2017-May-24 07:29N 39°07' W 074°42'0 0.0
2017-May-24 06:57N 39°07' W 074°42'0 0.0
2017-May-24 06:30N 39°07' W 074°42'0 0.1
2017-May-24 05:58N 39°07' W 074°42'0 0.0
2017-May-24 05:27N 39°07' W 074°42'0 0.0
2017-May-24 04:55N 39°07' W 074°42'0 0.0
2017-May-24 04:24N 39°07' W 074°42'0 0.0
2017-May-24 03:49N 39°07' W 074°42'0 0.0
2017-May-24 02:48N 39°07' W 074°42'0 0.0
2017-May-24 02:23N 39°07' W 074°42'0 0.0
2017-May-24 01:53N 39°07' W 074°42'0 0.0
2017-May-24 01:29N 39°07' W 074°42'0 0.0
2017-May-24 01:01N 39°07' W 074°42'0 0.0
2017-May-24 00:29N 39°07' W 074°42'0 0.0
2017-May-24 00:00N 39°07' W 074°42'0 0.0
2017-May-23 23:13N 39°07' W 074°42'0 0.1
2017-May-23 22:59N 39°07' W 074°42'0 0.0
2017-May-23 22:06N 39°07' W 074°42'13 1.1
2017-May-23 10:32N 38°56' W 074°51'0 1.0
2017-May-23 10:30N 38°56' W 074°51'2 2.1
2017-May-23 09:44N 38°57' W 074°52'0 0.0
2017-May-23 08:29N 38°57' W 074°52'0 0.0
2017-May-23 06:59N 38°57' W 074°52'0 0.0
2017-May-23 03:01N 38°57' W 074°52'0 0.0
2017-May-23 02:58N 38°57' W 074°52'5 0.2
2017-May-22 05:36N 38°55' W 074°47'0 2.6
2017-May-22 05:29N 38°54' W 074°47'1 2.6
2017-May-22 05:00N 38°53' W 074°48'2 2.8
2017-May-22 04:28N 38°52' W 074°49'1 2.8
2017-May-22 03:59N 38°51' W 074°49'1 2.8
2017-May-22 03:30N 38°49' W 074°50'2 3.5
2017-May-22 02:57N 38°48' W 074°52'2 3.9
2017-May-22 02:28N 38°47' W 074°53'2 3.8
2017-May-22 02:00N 38°45' W 074°54'2 3.6
2017-May-22 01:30N 38°43' W 074°55'8 3.4
2017-May-21 23:14N 38°36' W 074°58'1 3.6
2017-May-21 22:55N 38°35' W 074°58'2 3.7
2017-May-21 22:30N 38°33' W 074°58'104 2.6
2017-May-20 06:41N 36°58' W 075°50'2 4.5
2017-May-20 06:21N 36°58' W 075°51'2 4.0
2017-May-20 05:57N 36°57' W 075°53'2 3.7
2017-May-20 05:20N 36°57' W 075°56'2 4.5
2017-May-20 05:00N 36°57' W 075°58'3 4.9
2017-May-20 04:30N 36°57' W 076°01'2 4.5
2017-May-20 04:00N 36°58' W 076°04'2 4.6
2017-May-20 03:30N 36°58' W 076°07'3 4.5
2017-May-20 02:48N 36°59' W 076°10'4 4.8
2017-May-20 01:52N 37°00' W 076°16'2 5.6
2017-May-20 01:26N 36°59' W 076°19'4 4.7
2017-May-20 00:37N 36°56' W 076°20'5 4.3
2017-May-19 23:30N 36°51' W 076°18'2 2.9
2017-May-19 22:52N 36°50' W 076°16'0 0.5
2017-May-19 22:27N 36°50' W 076°16'0 0.0
2017-May-19 22:00N 36°50' W 076°16'0 0.0
2017-May-19 21:30N 36°50' W 076°16'0 0.0
2017-May-19 21:00N 36°50' W 076°16'0 0.0
2017-May-19 20:30N 36°50' W 076°16'0 0.0
2017-May-19 20:00N 36°50' W 076°16'0 0.0
2017-May-19 19:30N 36°50' W 076°16'0 0.0
2017-May-19 19:00N 36°50' W 076°16'0 0.0
2017-May-19 18:30N 36°50' W 076°16'0 0.0
2017-May-19 18:00N 36°50' W 076°16'0 0.0
2017-May-19 17:30N 36°50' W 076°16'0 0.0
2017-May-19 17:00N 36°50' W 076°16'0 0.0
2017-May-19 16:30N 36°50' W 076°16'0 0.0
2017-May-19 16:00N 36°50' W 076°16'0 0.0
2017-May-19 15:30N 36°50' W 076°16'0 0.0
2017-May-19 15:00N 36°50' W 076°16'0 0.0
2017-May-19 14:00N 36°50' W 076°16'0 0.5
2017-May-19 13:30N 36°50' W 076°16'1 2.6
2017-May-19 13:00N 36°51' W 076°18'1 1.4
2017-May-19 12:30N 36°51' W 076°18'2 3.5
2017-May-19 12:00N 36°53' W 076°20'11 1.5
2017-May-19 04:54N 36°59' W 076°10'3 2.3
2017-May-19 03:41N 36°58' W 076°07'0 2.3
2017-May-19 03:30N 36°58' W 076°06'1 2.5
2017-May-19 03:00N 36°58' W 076°05'1 2.3
2017-May-19 02:22N 36°57' W 076°03'1 2.2
2017-May-19 02:00N 36°57' W 076°02'1 2.3
2017-May-19 01:30N 36°57' W 076°00'1 2.0
2017-May-19 00:54N 36°56' W 075°59'1 2.0
2017-May-19 00:30N 36°56' W 075°58'1 2.2
2017-May-19 00:00N 36°55' W 075°57'1 2.4
2017-May-18 23:30N 36°54' W 075°56'1 2.3
2017-May-18 22:57N 36°53' W 075°55'1 2.4
2017-May-18 22:28N 36°52' W 075°54'69 3.2
2017-May-18 01:17N 35°47' W 075°28'4 4.2
2017-May-18 00:24N 35°44' W 075°26'49 3.7
2017-May-17 11:02N 34°56' W 075°40'0 4.0
2017-May-17 10:55N 34°55' W 075°41'2 4.1
2017-May-17 10:30N 34°54' W 075°42'2 4.2
2017-May-17 09:59N 34°53' W 075°44'2 4.1
2017-May-17 09:24N 34°51' W 075°47'2 4.0
2017-May-17 08:58N 34°50' W 075°48'2 4.3
2017-May-17 08:30N 34°49' W 075°50'2 4.5
2017-May-17 08:00N 34°48' W 075°52'2 4.5
2017-May-17 07:30N 34°46' W 075°55'3 4.5
2017-May-17 06:46N 34°44' W 075°58'1 4.8
2017-May-17 06:29N 34°44' W 075°59'2 4.8
2017-May-17 06:00N 34°42' W 076°02'3 4.9
2017-May-17 05:29N 34°41' W 076°04'2 4.8
2017-May-17 05:00N 34°39' W 076°06'2 4.7
2017-May-17 04:30N 34°38' W 076°09'2 4.6
2017-May-17 04:00N 34°37' W 076°11'2 4.6
2017-May-17 03:30N 34°35' W 076°13'3 4.6
2017-May-17 02:54N 34°33' W 076°16'2 4.6
2017-May-17 02:30N 34°32' W 076°17'2 4.6
2017-May-17 02:00N 34°31' W 076°20'2 4.3
2017-May-17 01:30N 34°30' W 076°22'2 4.1
2017-May-17 01:00N 34°29' W 076°24'3 4.1
2017-May-17 00:12N 34°27' W 076°27'1 4.0
2017-May-17 00:00N 34°27' W 076°28'2 4.0
2017-May-16 23:30N 34°27' W 076°30'4 3.8
2017-May-16 22:26N 34°29' W 076°34'4 3.7
2017-May-16 21:26N 34°32' W 076°37'2 3.7
2017-May-16 21:00N 34°34' W 076°38'2 3.9
2017-May-16 20:30N 34°36' W 076°39'2 3.9
2017-May-16 20:00N 34°37' W 076°40'2 4.1
2017-May-16 19:30N 34°39' W 076°40'2 3.7
2017-May-16 19:01N 34°41' W 076°40'1 2.9
2017-May-16 18:30N 34°42' W 076°41'0 0.0
2017-May-16 18:00N 34°42' W 076°41'0 0.0
2017-May-16 17:30N 34°42' W 076°41'0 0.0
2017-May-16 17:00N 34°42' W 076°41'0 0.0
2017-May-16 16:30N 34°42' W 076°41'0 0.0
2017-May-16 16:00N 34°42' W 076°41'0 0.0
2017-May-16 15:30N 34°42' W 076°41'0 0.0
2017-May-16 15:00N 34°42' W 076°41'0 0.0
2017-May-16 14:30N 34°42' W 076°41'0 0.0
2017-May-16 13:30N 34°42' W 076°41'0 0.0
2017-May-16 13:00N 34°42' W 076°41'0 0.0
2017-May-16 12:30N 34°42' W 076°41'0 0.0
2017-May-16 12:00N 34°42' W 076°41'0 0.0
2017-May-16 11:30N 34°42' W 076°41'0 0.0
2017-May-16 11:00N 34°42' W 076°41'0 0.0
2017-May-16 10:30N 34°42' W 076°41'  
Track history (hours):
 
Tides and Currents Weather Stations Pressure Air Temp Water Temp Dewpoint Dewpoint Depression Visibility Wind Speed Wind Dir Waves Ship Positions

Illinois

Owner: Great Lakes Dredge & Dock Company, OAK BROOK, IL. More information available from US FCC via Universal Licensing System and Coast Guard Vessel Documentation Center.

Last reported at 2017-May-26 10:16 UTC. Time now 2017-May-26 16:53 UTC.
Position N 39°07' W 074°42'.

Length 69 m; draft 3 m.

Type: Dredging. MMSI: 366796250.

Date/timePositionNaut miles runAvg speedWind from/ knotsBaromVisibWave heightAir tempDewpointWater temp
2017-May-26 10:16N 39°07' W 074°42'0 0.0
2017-May-26 09:47N 39°07' W 074°42'0 0.0
2017-May-26 09:28N 39°07' W 074°42'0 0.0
2017-May-26 08:56N 39°07' W 074°42'0 0.0
2017-May-26 08:30N 39°07' W 074°42'0 0.0
2017-May-26 08:00N 39°07' W 074°42'0 0.0
2017-May-26 07:25N 39°07' W 074°42'0 0.0
2017-May-26 06:53N 39°07' W 074°42'0 0.0
2017-May-26 05:31N 39°07' W 074°42'0 0.0
2017-May-26 00:17N 39°07' W 074°42'0 0.0
2017-May-25 23:55N 39°07' W 074°42'0 0.0
2017-May-25 23:30N 39°07' W 074°42'0 0.0
2017-May-25 22:56N 39°07' W 074°42'0 0.0
2017-May-25 22:17N 39°07' W 074°42'0 0.0
2017-May-25 21:44N 39°07' W 074°42'0 0.0
2017-May-25 21:19N 39°07' W 074°42'0 0.0
2017-May-25 18:28N 39°07' W 074°42'0 0.0
2017-May-25 07:41N 39°07' W 074°42'0 0.0
2017-May-25 07:23N 39°07' W 074°42'0 0.0
2017-May-25 06:40N 39°07' W 074°42'0 0.0
2017-May-24 11:46N 39°07' W 074°42'0 0.0
2017-May-24 11:27N 39°07' W 074°42'0 0.0
2017-May-24 10:13N 39°07' W 074°42'0 0.0
2017-May-24 09:59N 39°07' W 074°42'0 0.0
2017-May-24 09:21N 39°07' W 074°42'0 0.1
2017-May-24 08:57N 39°07' W 074°42'0 0.1
2017-May-24 08:30N 39°07' W 074°42'0 0.0
2017-May-24 07:57N 39°07' W 074°42'0 0.0
2017-May-24 07:29N 39°07' W 074°42'0 0.0
2017-May-24 06:57N 39°07' W 074°42'0 0.0
2017-May-24 06:30N 39°07' W 074°42'0 0.1
2017-May-24 05:58N 39°07' W 074°42'0 0.0
2017-May-24 05:27N 39°07' W 074°42'0 0.0
2017-May-24 04:55N 39°07' W 074°42'0 0.0
2017-May-24 04:24N 39°07' W 074°42'0 0.0
2017-May-24 03:49N 39°07' W 074°42'0 0.0
2017-May-24 02:48N 39°07' W 074°42'0 0.0
2017-May-24 02:23N 39°07' W 074°42'0 0.0
2017-May-24 01:53N 39°07' W 074°42'0 0.0
2017-May-24 01:29N 39°07' W 074°42'0 0.0
2017-May-24 01:01N 39°07' W 074°42'0 0.0
2017-May-24 00:29N 39°07' W 074°42'0 0.0
2017-May-24 00:00N 39°07' W 074°42'0 0.0
2017-May-23 23:13N 39°07' W 074°42'0 0.1
2017-May-23 22:59N 39°07' W 074°42'0 0.0
2017-May-23 22:06N 39°07' W 074°42'13 1.1
2017-May-23 10:32N 38°56' W 074°51'0 1.0
2017-May-23 10:30N 38°56' W 074°51'2 2.1
2017-May-23 09:44N 38°57' W 074°52'0 0.0
2017-May-23 08:29N 38°57' W 074°52'0 0.0
2017-May-23 06:59N 38°57' W 074°52'0 0.0
2017-May-23 03:01N 38°57' W 074°52'0 0.0
2017-May-23 02:58N 38°57' W 074°52'5 0.2
2017-May-22 05:36N 38°55' W 074°47'0 2.6
2017-May-22 05:29N 38°54' W 074°47'1 2.6
2017-May-22 05:00N 38°53' W 074°48'2 2.8
2017-May-22 04:28N 38°52' W 074°49'1 2.8
2017-May-22 03:59N 38°51' W 074°49'1 2.8
2017-May-22 03:30N 38°49' W 074°50'2 3.5
2017-May-22 02:57N 38°48' W 074°52'2 3.9
2017-May-22 02:28N 38°47' W 074°53'2 3.8
2017-May-22 02:00N 38°45' W 074°54'2 3.6
2017-May-22 01:30N 38°43' W 074°55'8 3.4
2017-May-21 23:14N 38°36' W 074°58'1 3.6
2017-May-21 22:55N 38°35' W 074°58'2 3.7
2017-May-21 22:30N 38°33' W 074°58'104 2.6
2017-May-20 06:41N 36°58' W 075°50'2 4.5
2017-May-20 06:21N 36°58' W 075°51'2 4.0
2017-May-20 05:57N 36°57' W 075°53'2 3.7
2017-May-20 05:20N 36°57' W 075°56'2 4.5
2017-May-20 05:00N 36°57' W 075°58'3 4.9
2017-May-20 04:30N 36°57' W 076°01'2 4.5
2017-May-20 04:00N 36°58' W 076°04'2 4.6
2017-May-20 03:30N 36°58' W 076°07'3 4.5
2017-May-20 02:48N 36°59' W 076°10'4 4.8
2017-May-20 01:52N 37°00' W 076°16'2 5.6
2017-May-20 01:26N 36°59' W 076°19'4 4.7
2017-May-20 00:37N 36°56' W 076°20'5 4.3
2017-May-19 23:30N 36°51' W 076°18'2 2.9
2017-May-19 22:52N 36°50' W 076°16'0 0.5
2017-May-19 22:27N 36°50' W 076°16'0 0.0
2017-May-19 22:00N 36°50' W 076°16'0 0.0
2017-May-19 21:30N 36°50' W 076°16'0 0.0
2017-May-19 21:00N 36°50' W 076°16'0 0.0
2017-May-19 20:30N 36°50' W 076°16'0 0.0
2017-May-19 20:00N 36°50' W 076°16'0 0.0
2017-May-19 19:30N 36°50' W 076°16'0 0.0
2017-May-19 19:00N 36°50' W 076°16'0 0.0
2017-May-19 18:30N 36°50' W 076°16'0 0.0
2017-May-19 18:00N 36°50' W 076°16'0 0.0
2017-May-19 17:30N 36°50' W 076°16'0 0.0
2017-May-19 17:00N 36°50' W 076°16'0 0.0
2017-May-19 16:30N 36°50' W 076°16'0 0.0
2017-May-19 16:00N 36°50' W 076°16'0 0.0
2017-May-19 15:30N 36°50' W 076°16'0 0.0
2017-May-19 15:00N 36°50' W 076°16'0 0.0
2017-May-19 14:00N 36°50' W 076°16'0 0.5
2017-May-19 13:30N 36°50' W 076°16'1 2.6
2017-May-19 13:00N 36°51' W 076°18'1 1.4
2017-May-19 12:30N 36°51' W 076°18'2 3.5
2017-May-19 12:00N 36°53' W 076°20'11 1.5
2017-May-19 04:54N 36°59' W 076°10'3 2.3
2017-May-19 03:41N 36°58' W 076°07'0 2.3
2017-May-19 03:30N 36°58' W 076°06'1 2.5
2017-May-19 03:00N 36°58' W 076°05'1 2.3
2017-May-19 02:22N 36°57' W 076°03'1 2.2
2017-May-19 02:00N 36°57' W 076°02'1 2.3
2017-May-19 01:30N 36°57' W 076°00'1 2.0
2017-May-19 00:54N 36°56' W 075°59'1 2.0
2017-May-19 00:30N 36°56' W 075°58'1 2.2
2017-May-19 00:00N 36°55' W 075°57'1 2.4
2017-May-18 23:30N 36°54' W 075°56'1 2.3
2017-May-18 22:57N 36°53' W 075°55'1 2.4
2017-May-18 22:28N 36°52' W 075°54'69 3.2
2017-May-18 01:17N 35°47' W 075°28'4 4.2
2017-May-18 00:24N 35°44' W 075°26'49 3.7
2017-May-17 11:02N 34°56' W 075°40'0 4.0
2017-May-17 10:55N 34°55' W 075°41'2 4.1
2017-May-17 10:30N 34°54' W 075°42'2 4.2
2017-May-17 09:59N 34°53' W 075°44'2 4.1
2017-May-17 09:24N 34°51' W 075°47'2 4.0
2017-May-17 08:58N 34°50' W 075°48'2 4.3
2017-May-17 08:30N 34°49' W 075°50'2 4.5
2017-May-17 08:00N 34°48' W 075°52'2 4.5
2017-May-17 07:30N 34°46' W 075°55'3 4.5
2017-May-17 06:46N 34°44' W 075°58'1 4.8
2017-May-17 06:29N 34°44' W 075°59'2 4.8
2017-May-17 06:00N 34°42' W 076°02'3 4.9
2017-May-17 05:29N 34°41' W 076°04'2 4.8
2017-May-17 05:00N 34°39' W 076°06'2 4.7
2017-May-17 04:30N 34°38' W 076°09'2 4.6
2017-May-17 04:00N 34°37' W 076°11'2 4.6
2017-May-17 03:30N 34°35' W 076°13'3 4.6
2017-May-17 02:54N 34°33' W 076°16'2 4.6
2017-May-17 02:30N 34°32' W 076°17'2 4.6
2017-May-17 02:00N 34°31' W 076°20'2 4.3
2017-May-17 01:30N 34°30' W 076°22'2 4.1
2017-May-17 01:00N 34°29' W 076°24'3 4.1
2017-May-17 00:12N 34°27' W 076°27'1 4.0
2017-May-17 00:00N 34°27' W 076°28'2 4.0
2017-May-16 23:30N 34°27' W 076°30'4 3.8
2017-May-16 22:26N 34°29' W 076°34'4 3.7
2017-May-16 21:26N 34°32' W 076°37'2 3.7
2017-May-16 21:00N 34°34' W 076°38'2 3.9
2017-May-16 20:30N 34°36' W 076°39'2 3.9
2017-May-16 20:00N 34°37' W 076°40'2 4.1
2017-May-16 19:30N 34°39' W 076°40'2 3.7
2017-May-16 19:01N 34°41' W 076°40'1 2.9
2017-May-16 18:30N 34°42' W 076°41'0 0.0
2017-May-16 18:00N 34°42' W 076°41'0 0.0
2017-May-16 17:30N 34°42' W 076°41'0 0.0
2017-May-16 17:00N 34°42' W 076°41'0 0.0
2017-May-16 16:30N 34°42' W 076°41'0 0.0
2017-May-16 16:00N 34°42' W 076°41'0 0.0
2017-May-16 15:30N 34°42' W 076°41'0 0.0
2017-May-16 15:00N 34°42' W 076°41'0 0.0
2017-May-16 14:30N 34°42' W 076°41'0 0.0
2017-May-16 13:30N 34°42' W 076°41'0 0.0
2017-May-16 13:00N 34°42' W 076°41'0 0.0
2017-May-16 12:30N 34°42' W 076°41'0 0.0
2017-May-16 12:00N 34°42' W 076°41'0 0.0
2017-May-16 11:30N 34°42' W 076°41'0 0.0
2017-May-16 11:00N 34°42' W 076°41'0 0.0
2017-May-16 10:30N 34°42' W 076°41'  

Dump ship's entire track history